sensor_id;sensor_type;location;lat;lon;timestamp;pressure;altitude;pressure_sealevel;temperature;humidity
10014;BME280;45684;48.358;10.746;2024-03-17T00:00:22;96881.50;;;9.67;100.00
10014;BME280;45684;48.358;10.746;2024-03-17T00:02:50;96885.50;;;9.69;100.00
10014;BME280;45684;48.358;10.746;2024-03-17T00:05:16;96893.41;;;9.66;100.00
10014;BME280;45684;48.358;10.746;2024-03-17T00:07:44;96889.28;;;9.68;100.00
10014;BME280;45684;48.358;10.746;2024-03-17T00:10:10;96882.78;;;9.69;100.00
10014;BME280;45684;48.358;10.746;2024-03-17T00:12:38;96883.88;;;9.68;100.00
10014;BME280;45684;48.358;10.746;2024-03-17T00:15:05;96888.78;;;9.66;100.00
10014;BME280;45684;48.358;10.746;2024-03-17T00:17:34;96885.56;;;9.64;100.00
10014;BME280;45684;48.358;10.746;2024-03-17T00:20:01;96890.47;;;9.62;100.00
10014;BME280;45684;48.358;10.746;2024-03-17T00:22:34;96887.03;;;9.57;100.00
10014;BME280;45684;48.358;10.746;2024-03-17T00:25:03;96881.66;;;9.57;100.00
10014;BME280;45684;48.358;10.746;2024-03-17T00:27:30;96885.66;;;9.59;100.00
10014;BME280;45684;48.358;10.746;2024-03-17T00:29:56;96875.13;;;9.58;100.00
10014;BME280;45684;48.358;10.746;2024-03-17T00:32:24;96865.59;;;9.47;100.00
10014;BME280;45684;48.358;10.746;2024-03-17T00:34:51;96866.31;;;9.33;100.00
10014;BME280;45684;48.358;10.746;2024-03-17T00:37:19;96865.63;;;9.23;100.00
10014;BME280;45684;48.358;10.746;2024-03-17T00:39:45;96866.06;;;9.11;100.00
10014;BME280;45684;48.358;10.746;2024-03-17T00:42:12;96860.00;;;9.00;100.00
10014;BME280;45684;48.358;10.746;2024-03-17T00:44:38;96854.94;;;8.93;100.00
10014;BME280;45684;48.358;10.746;2024-03-17T00:47:05;96860.38;;;8.88;100.00
10014;BME280;45684;48.358;10.746;2024-03-17T00:49:33;96852.88;;;8.85;100.00
10014;BME280;45684;48.358;10.746;2024-03-17T00:52:02;96855.34;;;8.82;100.00
10014;BME280;45684;48.358;10.746;2024-03-17T00:54:28;96855.34;;;8.82;100.00
10014;BME280;45684;48.358;10.746;2024-03-17T00:56:56;96855.91;;;8.79;100.00
10014;BME280;45684;48.358;10.746;2024-03-17T00:59:22;96852.25;;;8.69;100.00
10014;BME280;45684;48.358;10.746;2024-03-17T01:01:49;96851.22;;;8.65;100.00
10014;BME280;45684;48.358;10.746;2024-03-17T01:04:15;96845.38;;;8.58;100.00
10014;BME280;45684;48.358;10.746;2024-03-17T01:06:42;96835.72;;;8.52;100.00
10014;BME280;45684;48.358;10.746;2024-03-17T01:09:10;96836.56;;;8.48;100.00
10014;BME280;45684;48.358;10.746;2024-03-17T01:11:37;96839.06;;;8.39;100.00
10014;BME280;45684;48.358;10.746;2024-03-17T01:14:04;96843.44;;;8.30;100.00
10014;BME280;45684;48.358;10.746;2024-03-17T01:16:33;96841.41;;;8.22;100.00
10014;BME280;45684;48.358;10.746;2024-03-17T01:18:59;96841.72;;;8.15;100.00
10014;BME280;45684;48.358;10.746;2024-03-17T01:21:26;96844.44;;;8.10;100.00
10014;BME280;45684;48.358;10.746;2024-03-17T01:23:52;96841.31;;;8.03;100.00
10014;BME280;45684;48.358;10.746;2024-03-17T01:26:21;96839.44;;;7.98;100.00
10014;BME280;45684;48.358;10.746;2024-03-17T01:28:47;96835.72;;;7.94;100.00
10014;BME280;45684;48.358;10.746;2024-03-17T01:31:14;96836.03;;;7.87;100.00
10014;BME280;45684;48.358;10.746;2024-03-17T01:33:40;96831.22;;;7.84;100.00
10014;BME280;45684;48.358;10.746;2024-03-17T01:36:07;96835.81;;;7.84;100.00
10014;BME280;45684;48.358;10.746;2024-03-17T01:38:34;96834.16;;;7.83;100.00
10014;BME280;45684;48.358;10.746;2024-03-17T01:41:01;96832.56;;;7.82;100.00
10014;BME280;45684;48.358;10.746;2024-03-17T01:43:29;96831.47;;;7.83;100.00
10014;BME280;45684;48.358;10.746;2024-03-17T01:45:58;96819.16;;;7.77;100.00
10014;BME280;45684;48.358;10.746;2024-03-17T01:48:26;96821.91;;;7.72;100.00
10014;BME280;45684;48.358;10.746;2024-03-17T01:50:55;96825.44;;;7.67;100.00
10014;BME280;45684;48.358;10.746;2024-03-17T01:53:22;96827.06;;;7.63;100.00
10014;BME280;45684;48.358;10.746;2024-03-17T01:55:52;96809.88;;;7.59;100.00
10014;BME280;45684;48.358;10.746;2024-03-17T01:58:20;96817.72;;;7.50;100.00
10014;BME280;45684;48.358;10.746;2024-03-17T02:00:51;96811.84;;;7.48;100.00
10014;BME280;45684;48.358;10.746;2024-03-17T02:03:18;96813.72;;;7.48;100.00
10014;BME280;45684;48.358;10.746;2024-03-17T02:05:45;96814.03;;;7.46;100.00
10014;BME280;45684;48.358;10.746;2024-03-17T02:08:11;96807.59;;;7.42;100.00
10014;BME280;45684;48.358;10.746;2024-03-17T02:10:38;96811.63;;;7.39;100.00
10014;BME280;45684;48.358;10.746;2024-03-17T02:13:05;96801.63;;;7.45;100.00
10014;BME280;45684;48.358;10.746;2024-03-17T02:15:32;96804.00;;;7.52;100.00
10014;BME280;45684;48.358;10.746;2024-03-17T02:18:00;96803.44;;;7.55;100.00
10014;BME280;45684;48.358;10.746;2024-03-17T02:20:27;96799.69;;;7.56;100.00
10014;BME280;45684;48.358;10.746;2024-03-17T02:23:09;96792.06;;;7.63;100.00
10014;BME280;45684;48.358;10.746;2024-03-17T02:25:37;96796.31;;;7.69;100.00
10014;BME280;45684;48.358;10.746;2024-03-17T02:28:03;96782.88;;;7.69;100.00
10014;BME280;45684;48.358;10.746;2024-03-17T02:30:31;96797.41;;;7.68;100.00
10014;BME280;45684;48.358;10.746;2024-03-17T02:32:57;96785.13;;;7.57;100.00
10014;BME280;45684;48.358;10.746;2024-03-17T02:35:25;96790.31;;;7.48;100.00
10014;BME280;45684;48.358;10.746;2024-03-17T02:37:52;96787.91;;;7.47;100.00
10014;BME280;45684;48.358;10.746;2024-03-17T02:40:20;96779.00;;;7.51;100.00
10014;BME280;45684;48.358;10.746;2024-03-17T02:42:46;96780.84;;;7.56;100.00
10014;BME280;45684;48.358;10.746;2024-03-17T02:45:14;96787.88;;;7.52;100.00
10014;BME280;45684;48.358;10.746;2024-03-17T02:47:41;96787.66;;;7.43;100.00
10014;BME280;45684;48.358;10.746;2024-03-17T02:50:09;96790.38;;;7.38;100.00
10014;BME280;45684;48.358;10.746;2024-03-17T02:52:36;96790.38;;;7.38;100.00
10014;BME280;45684;48.358;10.746;2024-03-17T02:55:04;96775.34;;;7.32;100.00
10014;BME280;45684;48.358;10.746;2024-03-17T02:57:33;96779.72;;;7.28;100.00
10014;BME280;45684;48.358;10.746;2024-03-17T03:00:00;96776.19;;;7.27;100.00
10014;BME280;45684;48.358;10.746;2024-03-17T03:02:30;96788.28;;;7.30;100.00
10014;BME280;45684;48.358;10.746;2024-03-17T03:04:57;96782.59;;;7.36;100.00
10014;BME280;45684;48.358;10.746;2024-03-17T03:07:24;96783.91;;;7.39;100.00
10014;BME280;45684;48.358;10.746;2024-03-17T03:09:51;96775.06;;;7.38;100.00
10014;BME280;45684;48.358;10.746;2024-03-17T03:12:18;96777.75;;;7.38;100.00
10014;BME280;45684;48.358;10.746;2024-03-17T03:14:47;96779.06;;;7.41;100.00
10014;BME280;45684;48.358;10.746;2024-03-17T03:17:14;96778.50;;;7.44;100.00
10014;BME280;45684;48.358;10.746;2024-03-17T03:19:41;96778.28;;;7.35;100.00
10014;BME280;45684;48.358;10.746;2024-03-17T03:22:08;96774.50;;;7.41;100.00
10014;BME280;45684;48.358;10.746;2024-03-17T03:24:35;96777.38;;;7.50;100.00
10014;BME280;45684;48.358;10.746;2024-03-17T03:27:03;96768.19;;;7.56;100.00
10014;BME280;45684;48.358;10.746;2024-03-17T03:29:30;96765.50;;;7.56;100.00
10014;BME280;45684;48.358;10.746;2024-03-17T03:31:58;96761.41;;;7.59;100.00
10014;BME280;45684;48.358;10.746;2024-03-17T03:34:26;96769.69;;;7.67;100.00
10014;BME280;45684;48.358;10.746;2024-03-17T03:36:54;96766.69;;;7.74;100.00
10014;BME280;45684;48.358;10.746;2024-03-17T03:39:22;96761.78;;;7.81;100.00
10014;BME280;45684;48.358;10.746;2024-03-17T03:41:49;96755.09;;;7.79;100.00
10014;BME280;45684;48.358;10.746;2024-03-17T03:44:16;96755.09;;;7.79;100.00
10014;BME280;45684;48.358;10.746;2024-03-17T03:46:44;96761.53;;;7.78;100.00
10014;BME280;45684;48.358;10.746;2024-03-17T03:49:14;96761.53;;;7.78;100.00
10014;BME280;45684;48.358;10.746;2024-03-17T03:51:41;96760.22;;;7.75;100.00
10014;BME280;45684;48.358;10.746;2024-03-17T03:54:08;96764.56;;;7.71;100.00
10014;BME280;45684;48.358;10.746;2024-03-17T03:56:35;96765.06;;;7.73;100.00
10014;BME280;45684;48.358;10.746;2024-03-17T03:59:02;96761.53;;;7.78;100.00
10014;BME280;45684;48.358;10.746;2024-03-17T04:01:31;96762.56;;;7.82;100.00
10014;BME280;45684;48.358;10.746;2024-03-17T04:03:58;96759.03;;;7.86;100.00
10014;BME280;45684;48.358;10.746;2024-03-17T04:06:27;96762.25;;;7.88;100.00
10014;BME280;45684;48.358;10.746;2024-03-17T04:08:54;96758.72;;;7.88;100.00
10014;BME280;45684;48.358;10.746;2024-03-17T04:11:21;96763.63;;;7.86;100.00
10014;BME280;45684;48.358;10.746;2024-03-17T04:13:48;96753.13;;;7.84;100.00
10014;BME280;45684;48.358;10.746;2024-03-17T04:16:17;96751.81;;;7.82;100.00
10014;BME280;45684;48.358;10.746;2024-03-17T04:18:44;96751.81;;;7.82;100.00
10014;BME280;45684;48.358;10.746;2024-03-17T04:21:11;96754.00;;;7.80;100.00
10014;BME280;45684;48.358;10.746;2024-03-17T04:23:38;96753.19;;;7.79;100.00
10014;BME280;45684;48.358;10.746;2024-03-17T04:26:06;96757.22;;;7.77;100.00
10014;BME280;45684;48.358;10.746;2024-03-17T04:28:35;96765.88;;;7.74;100.00
10014;BME280;45684;48.358;10.746;2024-03-17T04:31:03;96764.28;;;7.73;100.00
10014;BME280;45684;48.358;10.746;2024-03-17T04:33:32;96756.47;;;7.71;100.00
10014;BME280;45684;48.358;10.746;2024-03-17T04:35:59;96756.25;;;7.67;100.00
10014;BME280;45684;48.358;10.746;2024-03-17T04:38:26;96753.84;;;7.66;100.00
10014;BME280;45684;48.358;10.746;2024-03-17T04:40:55;96761.63;;;7.67;100.00
10014;BME280;45684;48.358;10.746;2024-03-17T04:43:25;96750.34;;;7.65;100.00
10014;BME280;45684;48.358;10.746;2024-03-17T04:45:59;96759.53;;;7.59;100.00
10014;BME280;45684;48.358;10.746;2024-03-17T04:48:26;96760.06;;;7.61;100.00
10014;BME280;45684;48.358;10.746;2024-03-17T04:50:54;96755.72;;;7.65;100.00
10014;BME280;45684;48.358;10.746;2024-03-17T04:53:21;96759.72;;;7.68;100.00
10014;BME280;45684;48.358;10.746;2024-03-17T04:56:00;96759.47;;;7.70;100.00
10014;BME280;45684;48.358;10.746;2024-03-17T04:58:27;96768.91;;;7.67;100.00
10014;BME280;45684;48.358;10.746;2024-03-17T05:00:54;96756.00;;;7.64;100.00
10014;BME280;45684;48.358;10.746;2024-03-17T05:03:21;96768.16;;;7.61;100.00
10014;BME280;45684;48.358;10.746;2024-03-17T05:05:58;96775.38;;;7.66;100.00
10014;BME280;45684;48.358;10.746;2024-03-17T05:08:26;96773.44;;;7.72;100.00
10014;BME280;45684;48.358;10.746;2024-03-17T05:10:56;96773.44;;;7.72;100.00
10014;BME280;45684;48.358;10.746;2024-03-17T05:13:25;96764.00;;;7.74;100.00
10014;BME280;45684;48.358;10.746;2024-03-17T05:15:53;96754.03;;;7.75;100.00
10014;BME280;45684;48.358;10.746;2024-03-17T05:18:20;96754.03;;;7.75;100.00
10014;BME280;45684;48.358;10.746;2024-03-17T05:20:56;96760.53;;;7.68;100.00
10014;BME280;45684;48.358;10.746;2024-03-17T05:23:25;96760.28;;;7.70;100.00
10014;BME280;45684;48.358;10.746;2024-03-17T05:25:53;96768.38;;;7.65;100.00
10014;BME280;45684;48.358;10.746;2024-03-17T05:28:20;96766.25;;;7.62;100.00
10014;BME280;45684;48.358;10.746;2024-03-17T05:30:48;96772.44;;;7.62;100.00
10014;BME280;45684;48.358;10.746;2024-03-17T05:33:16;96769.25;;;7.55;100.00
10014;BME280;45684;48.358;10.746;2024-03-17T05:35:48;96768.75;;;7.53;100.00
10014;BME280;45684;48.358;10.746;2024-03-17T05:38:18;96769.03;;;7.52;100.00
10014;BME280;45684;48.358;10.746;2024-03-17T05:40:55;96769.53;;;7.54;100.00
10014;BME280;45684;48.358;10.746;2024-03-17T05:43:23;96771.94;;;7.55;100.00
10014;BME280;45684;48.358;10.746;2024-03-17T05:45:53;96774.09;;;7.58;100.00
10014;BME280;45684;48.358;10.746;2024-03-17T05:48:20;96777.53;;;7.64;100.00
10014;BME280;45684;48.358;10.746;2024-03-17T05:50:48;96783.41;;;7.71;100.00
10014;BME280;45684;48.358;10.746;2024-03-17T05:53:16;96769.06;;;7.81;100.00
10014;BME280;45684;48.358;10.746;2024-03-17T05:55:44;96768.44;;;7.89;100.00
10014;BME280;45684;48.358;10.746;2024-03-17T05:58:11;96774.88;;;7.93;100.00
10014;BME280;45684;48.358;10.746;2024-03-17T06:00:39;96776.72;;;7.98;100.00
10014;BME280;45684;48.358;10.746;2024-03-17T06:03:09;96774.47;;;8.05;100.00
10014;BME280;45684;48.358;10.746;2024-03-17T06:05:38;96780.34;;;8.12;100.00
10014;BME280;45684;48.358;10.746;2024-03-17T06:08:06;96776.19;;;8.19;100.00
10014;BME280;45684;48.358;10.746;2024-03-17T06:10:35;96779.94;;;8.24;100.00
10014;BME280;45684;48.358;10.746;2024-03-17T06:13:03;96777.19;;;8.29;100.00
10014;BME280;45684;48.358;10.746;2024-03-17T06:15:31;96779.63;;;8.30;100.00
10014;BME280;45684;48.358;10.746;2024-03-17T06:17:58;96772.28;;;8.36;100.00
10014;BME280;45684;48.358;10.746;2024-03-17T06:20:29;96780.31;;;8.41;100.00
10014;BME280;45684;48.358;10.746;2024-03-17T06:22:55;96775.16;;;8.45;100.00
10014;BME280;45684;48.358;10.746;2024-03-17T06:25:22;96778.38;;;8.47;100.00
10014;BME280;45684;48.358;10.746;2024-03-17T06:27:50;96775.63;;;8.52;100.00
10014;BME280;45684;48.358;10.746;2024-03-17T06:30:18;96772.28;;;8.60;100.00
10014;BME280;45684;48.358;10.746;2024-03-17T06:32:46;96770.84;;;8.67;100.00
10014;BME280;45684;48.358;10.746;2024-03-17T06:35:13;96766.44;;;8.77;100.00
10014;BME280;45684;48.358;10.746;2024-03-17T06:37:43;96767.09;;;8.87;100.00
10014;BME280;45684;48.358;10.746;2024-03-17T06:40:13;96763.94;;;8.99;100.00
10014;BME280;45684;48.358;10.746;2024-03-17T06:42:41;96761.41;;;9.08;100.00
10014;BME280;45684;48.358;10.746;2024-03-17T06:45:08;96764.91;;;9.08;100.00
10014;BME280;45684;48.358;10.746;2024-03-17T06:47:36;96764.47;;;9.20;100.00
10014;BME280;45684;48.358;10.746;2024-03-17T06:50:04;96769.72;;;9.30;100.00
10014;BME280;45684;48.358;10.746;2024-03-17T06:52:32;96757.97;;;9.40;100.00
10014;BME280;45684;48.358;10.746;2024-03-17T06:55:01;96772.47;;;9.44;100.00
10014;BME280;45684;48.358;10.746;2024-03-17T06:57:28;96770.63;;;9.58;100.00
10014;BME280;45684;48.358;10.746;2024-03-17T06:59:55;96772.94;;;9.65;100.00
10014;BME280;45684;48.358;10.746;2024-03-17T07:02:22;96774.72;;;9.75;100.00
10014;BME280;45684;48.358;10.746;2024-03-17T07:04:50;96774.91;;;9.78;100.00
10014;BME280;45684;48.358;10.746;2024-03-17T07:07:17;96773.72;;;9.84;100.00
10014;BME280;45684;48.358;10.746;2024-03-17T07:09:47;96768.84;;;10.00;100.00
10014;BME280;45684;48.358;10.746;2024-03-17T07:12:15;96763.88;;;10.07;100.00
10014;BME280;45684;48.358;10.746;2024-03-17T07:14:43;96766.19;;;10.14;100.00
10014;BME280;45684;48.358;10.746;2024-03-17T07:17:10;96768.78;;;10.19;100.00
10014;BME280;45684;48.358;10.746;2024-03-17T07:19:37;96769.28;;;10.21;100.00
10014;BME280;45684;48.358;10.746;2024-03-17T07:22:05;96770.22;;;10.30;100.00
10014;BME280;45684;48.358;10.746;2024-03-17T07:24:32;96773.81;;;10.39;100.00
10014;BME280;45684;48.358;10.746;2024-03-17T07:26:59;96769.31;;;10.48;100.00
10014;BME280;45684;48.358;10.746;2024-03-17T07:29:28;96769.31;;;10.62;100.00
10014;BME280;45684;48.358;10.746;2024-03-17T07:31:55;96763.91;;;10.76;100.00
10014;BME280;45684;48.358;10.746;2024-03-17T07:34:22;96777.63;;;10.93;100.00
10014;BME280;45684;48.358;10.746;2024-03-17T07:36:49;96771.50;;;11.02;100.00
10014;BME280;45684;48.358;10.746;2024-03-17T07:39:17;96765.25;;;11.15;100.00
10014;BME280;45684;48.358;10.746;2024-03-17T07:41:44;96770.38;;;11.16;100.00
10014;BME280;45684;48.358;10.746;2024-03-17T07:44:11;96768.13;;;11.18;100.00
10014;BME280;45684;48.358;10.746;2024-03-17T07:46:40;96762.81;;;11.27;100.00
10014;BME280;45684;48.358;10.746;2024-03-17T07:49:07;96754.28;;;11.34;100.00
10014;BME280;45684;48.358;10.746;2024-03-17T07:51:34;96760.06;;;11.41;100.00
10014;BME280;45684;48.358;10.746;2024-03-17T07:54:02;96760.19;;;11.58;100.00
10014;BME280;45684;48.358;10.746;2024-03-17T07:56:29;96765.56;;;11.72;100.00
10014;BME280;45684;48.358;10.746;2024-03-17T07:58:56;96762.91;;;11.81;100.00
10014;BME280;45684;48.358;10.746;2024-03-17T08:01:23;96763.41;;;11.83;100.00
10014;BME280;45684;48.358;10.746;2024-03-17T08:03:52;96764.44;;;11.95;100.00
10014;BME280;45684;48.358;10.746;2024-03-17T08:06:21;96759.56;;;12.06;100.00
10014;BME280;45684;48.358;10.746;2024-03-17T08:08:50;96763.63;;;12.17;100.00
10014;BME280;45684;48.358;10.746;2024-03-17T08:11:17;96762.75;;;12.39;100.00
10014;BME280;45684;48.358;10.746;2024-03-17T08:13:44;96769.16;;;12.43;100.00
10014;BME280;45684;48.358;10.746;2024-03-17T08:16:12;96762.25;;;12.68;100.00
10014;BME280;45684;48.358;10.746;2024-03-17T08:18:41;96758.44;;;12.87;100.00
10014;BME280;45684;48.358;10.746;2024-03-17T08:21:09;96752.72;;;12.97;100.00
10014;BME280;45684;48.358;10.746;2024-03-17T08:23:37;96751.44;;;13.03;100.00
10014;BME280;45684;48.358;10.746;2024-03-17T08:26:07;96743.13;;;12.99;100.00
10014;BME280;45684;48.358;10.746;2024-03-17T08:28:35;96747.13;;;13.19;100.00
10014;BME280;45684;48.358;10.746;2024-03-17T08:31:04;96739.53;;;13.39;100.00
10014;BME280;45684;48.358;10.746;2024-03-17T08:33:31;96747.03;;;13.50;100.00
10014;BME280;45684;48.358;10.746;2024-03-17T08:36:00;96743.03;;;13.48;100.00
10014;BME280;45684;48.358;10.746;2024-03-17T08:38:30;96735.84;;;13.43;100.00
10014;BME280;45684;48.358;10.746;2024-03-17T08:41:01;96729.94;;;13.50;100.00
10014;BME280;45684;48.358;10.746;2024-03-17T08:43:28;96725.78;;;13.52;100.00
10014;BME280;45684;48.358;10.746;2024-03-17T08:45:56;96719.38;;;13.57;100.00
10014;BME280;45684;48.358;10.746;2024-03-17T08:48:24;96720.47;;;13.56;100.00
10014;BME280;45684;48.358;10.746;2024-03-17T08:50:52;96719.03;;;13.67;100.00
10014;BME280;45684;48.358;10.746;2024-03-17T08:53:20;96714.22;;;13.73;100.00
10014;BME280;45684;48.358;10.746;2024-03-17T08:55:49;96715.78;;;13.91;100.00
10014;BME280;45684;48.358;10.746;2024-03-17T08:58:17;96722.16;;;14.04;100.00
10014;BME280;45684;48.358;10.746;2024-03-17T09:00:44;96726.63;;;14.09;100.00
10014;BME280;45684;48.358;10.746;2024-03-17T09:03:13;96715.22;;;14.15;100.00
10014;BME280;45684;48.358;10.746;2024-03-17T09:05:42;96719.19;;;14.26;100.00
10014;BME280;45684;48.358;10.746;2024-03-17T09:08:15;96721.03;;;14.43;100.00
10014;BME280;45684;48.358;10.746;2024-03-17T09:10:43;96721.66;;;14.58;100.00
10014;BME280;45684;48.358;10.746;2024-03-17T09:13:14;96712.44;;;14.71;100.00
10014;BME280;45684;48.358;10.746;2024-03-17T09:15:50;96713.66;;;14.82;98.70
10014;BME280;45684;48.358;10.746;2024-03-17T09:18:17;96713.16;;;14.89;97.12
10014;BME280;45684;48.358;10.746;2024-03-17T09:20:44;96714.81;;;15.02;93.39
10014;BME280;45684;48.358;10.746;2024-03-17T09:23:12;96710.88;;;14.91;92.13
10014;BME280;45684;48.358;10.746;2024-03-17T09:25:39;96708.25;;;15.03;91.15
10014;BME280;45684;48.358;10.746;2024-03-17T09:28:07;96713.09;;;15.18;85.87
10014;BME280;45684;48.358;10.746;2024-03-17T09:30:36;96706.00;;;15.26;82.46
10014;BME280;45684;48.358;10.746;2024-03-17T09:33:03;96697.84;;;15.38;82.21
10014;BME280;45684;48.358;10.746;2024-03-17T09:35:30;96697.47;;;15.48;81.54
10014;BME280;45684;48.358;10.746;2024-03-17T09:37:57;96700.84;;;15.24;80.77
10014;BME280;45684;48.358;10.746;2024-03-17T09:40:25;96697.88;;;15.17;84.34
10014;BME280;45684;48.358;10.746;2024-03-17T09:42:52;96695.53;;;15.28;83.56
10014;BME280;45684;48.358;10.746;2024-03-17T09:45:20;96693.03;;;15.56;80.83
10014;BME280;45684;48.358;10.746;2024-03-17T09:47:49;96696.81;;;15.85;79.11
10014;BME280;45684;48.358;10.746;2024-03-17T09:50:17;96693.19;;;15.60;74.29
10014;BME280;45684;48.358;10.746;2024-03-17T09:52:45;96698.84;;;15.54;75.67
10014;BME280;45684;48.358;10.746;2024-03-17T09:55:16;96693.69;;;15.41;76.92
10014;BME280;45684;48.358;10.746;2024-03-17T09:57:43;96684.28;;;15.50;80.21
10014;BME280;45684;48.358;10.746;2024-03-17T10:00:14;96694.41;;;15.50;81.91
10014;BME280;45684;48.358;10.746;2024-03-17T10:02:42;96689.88;;;15.87;76.65
10014;BME280;45684;48.358;10.746;2024-03-17T10:05:20;96685.34;;;15.91;74.65
10014;BME280;45684;48.358;10.746;2024-03-17T10:07:51;96691.41;;;15.64;77.36
10014;BME280;45684;48.358;10.746;2024-03-17T10:10:20;96686.25;;;15.83;77.59
10014;BME280;45684;48.358;10.746;2024-03-17T10:12:49;96685.25;;;16.12;74.12
10014;BME280;45684;48.358;10.746;2024-03-17T10:15:18;96682.56;;;16.61;75.32
10014;BME280;45684;48.358;10.746;2024-03-17T10:17:46;96673.75;;;17.04;76.42
10014;BME280;45684;48.358;10.746;2024-03-17T10:20:15;96681.56;;;17.58;72.77
10014;BME280;45684;48.358;10.746;2024-03-17T10:23:04;96690.09;;;17.85;65.80
10014;BME280;45684;48.358;10.746;2024-03-17T10:25:32;96682.50;;;17.78;69.15
10014;BME280;45684;48.358;10.746;2024-03-17T10:28:01;96683.84;;;17.84;67.56
10014;BME280;45684;48.358;10.746;2024-03-17T10:30:28;96683.94;;;17.88;67.43
10014;BME280;45684;48.358;10.746;2024-03-17T10:32:58;96686.25;;;17.86;67.56
10014;BME280;45684;48.358;10.746;2024-03-17T10:35:31;96674.41;;;17.54;65.93
10014;BME280;45684;48.358;10.746;2024-03-17T10:37:59;96678.03;;;17.58;65.33
10014;BME280;45684;48.358;10.746;2024-03-17T10:40:29;96676.44;;;17.57;65.73
10014;BME280;45684;48.358;10.746;2024-03-17T10:42:58;96670.72;;;18.22;63.31
10014;BME280;45684;48.358;10.746;2024-03-17T10:45:26;96674.13;;;18.82;63.35
10014;BME280;45684;48.358;10.746;2024-03-17T10:47:59;96665.38;;;19.11;58.84
10014;BME280;45684;48.358;10.746;2024-03-17T10:50:30;96670.44;;;19.09;60.94
10014;BME280;45684;48.358;10.746;2024-03-17T10:53:01;96667.78;;;19.13;61.64
10014;BME280;45684;48.358;10.746;2024-03-17T10:55:40;96675.53;;;18.92;58.23
10014;BME280;45684;48.358;10.746;2024-03-17T10:58:21;96660.28;;;18.75;58.14
10014;BME280;45684;48.358;10.746;2024-03-17T11:00:50;96666.56;;;18.44;57.33
10014;BME280;45684;48.358;10.746;2024-03-17T11:03:18;96664.53;;;17.65;58.14
10014;BME280;45684;48.358;10.746;2024-03-17T11:05:48;96670.25;;;17.88;58.17
10014;BME280;45684;48.358;10.746;2024-03-17T11:08:17;96664.66;;;18.28;61.58
10014;BME280;45684;48.358;10.746;2024-03-17T11:10:53;96660.56;;;18.54;59.09
10014;BME280;45684;48.358;10.746;2024-03-17T11:13:24;96660.03;;;18.99;54.89
10014;BME280;45684;48.358;10.746;2024-03-17T11:15:52;96667.34;;;19.11;50.95
10014;BME280;45684;48.358;10.746;2024-03-17T11:18:35;96666.50;;;19.26;51.94
10014;BME280;45684;48.358;10.746;2024-03-17T11:21:03;96669.00;;;19.16;50.27
10014;BME280;45684;48.358;10.746;2024-03-17T11:23:37;96664.66;;;19.15;51.98
10014;BME280;45684;48.358;10.746;2024-03-17T11:26:06;96669.31;;;18.75;48.87
10014;BME280;45684;48.358;10.746;2024-03-17T11:28:47;96673.59;;;19.11;48.21
10014;BME280;45684;48.358;10.746;2024-03-17T11:31:43;96667.19;;;19.04;47.87
10014;BME280;45684;48.358;10.746;2024-03-17T11:34:35;96672.53;;;18.65;49.30
10014;BME280;45684;48.358;10.746;2024-03-17T11:37:03;96676.78;;;18.78;49.28
10014;BME280;45684;48.358;10.746;2024-03-17T11:39:54;96670.22;;;18.99;49.27
10014;BME280;45684;48.358;10.746;2024-03-17T11:42:26;96668.44;;;18.71;49.33
10014;BME280;45684;48.358;10.746;2024-03-17T11:45:01;96670.44;;;18.74;49.79
10014;BME280;45684;48.358;10.746;2024-03-17T11:47:38;96653.56;;;18.72;49.11
10014;BME280;45684;48.358;10.746;2024-03-17T11:50:07;96645.16;;;18.81;48.93
10014;BME280;45684;48.358;10.746;2024-03-17T11:52:36;96655.72;;;18.47;49.34
10014;BME280;45684;48.358;10.746;2024-03-17T11:55:04;96643.88;;;18.43;48.96
10014;BME280;45684;48.358;10.746;2024-03-17T11:57:31;96641.84;;;18.56;49.09
10014;BME280;45684;48.358;10.746;2024-03-17T11:59:59;96644.97;;;18.90;48.84
10014;BME280;45684;48.358;10.746;2024-03-17T12:02:26;96635.88;;;18.70;50.14
10014;BME280;45684;48.358;10.746;2024-03-17T12:04:56;96624.31;;;18.76;50.84
10014;BME280;45684;48.358;10.746;2024-03-17T12:07:23;96628.94;;;19.30;49.67
10014;BME280;45684;48.358;10.746;2024-03-17T12:09:52;96625.78;;;19.09;47.94
10014;BME280;45684;48.358;10.746;2024-03-17T12:12:21;96620.03;;;18.79;48.57
10014;BME280;45684;48.358;10.746;2024-03-17T12:14:50;96623.75;;;19.06;47.00
10014;BME280;45684;48.358;10.746;2024-03-17T12:17:20;96618.06;;;18.95;47.24
10014;BME280;45684;48.358;10.746;2024-03-17T12:19:47;96611.13;;;19.01;47.66
10014;BME280;45684;48.358;10.746;2024-03-17T12:22:17;96611.38;;;19.12;47.23
10014;BME280;45684;48.358;10.746;2024-03-17T12:24:48;96612.00;;;19.25;46.34
10014;BME280;45684;48.358;10.746;2024-03-17T12:27:18;96596.91;;;19.15;48.06
10014;BME280;45684;48.358;10.746;2024-03-17T12:29:44;96601.53;;;19.11;48.10
10014;BME280;45684;48.358;10.746;2024-03-17T12:32:15;96598.47;;;18.77;47.81
10014;BME280;45684;48.358;10.746;2024-03-17T12:34:42;96605.91;;;18.77;47.36
10014;BME280;45684;48.358;10.746;2024-03-17T12:37:16;96594.25;;;18.64;48.80
10014;BME280;45684;48.358;10.746;2024-03-17T12:39:44;96596.97;;;18.64;47.80
10014;BME280;45684;48.358;10.746;2024-03-17T12:42:12;96597.75;;;18.45;48.13
10014;BME280;45684;48.358;10.746;2024-03-17T12:44:40;96602.22;;;18.69;48.00
10014;BME280;45684;48.358;10.746;2024-03-17T12:47:17;96594.34;;;18.68;47.72
10014;BME280;45684;48.358;10.746;2024-03-17T12:49:47;96597.56;;;18.89;48.43
10014;BME280;45684;48.358;10.746;2024-03-17T12:52:18;96600.81;;;18.95;47.78
10014;BME280;45684;48.358;10.746;2024-03-17T12:54:56;96595.03;;;19.00;47.10